Jefferson City, MO

2:42 PM CST on February 12, 2016 (GMT -0600)
Moreau River Bottoms | | Change Station
CLOSE
Current Station
Personal Weather Station
Location: Jefferson City, MO
Elevation: 581 ft
Nearby Weather Stations

Elev 581 ft 38.52 °N, 92.14 °W | Updated 14 minutes ago

Partly Cloudy
Partly Cloudy
40.6 °F
Feels Like 35 °F
N
7.8
Wind Variable Wind from SW

Today
High -- | Low -- °F
--% Chance of Precip.
Yesterday
High -- | Low -- °F
Precip. -- in
Pressure 30.37 in
Visibility 10.0 miles
Clouds Clear
Windchill 35 °F
Dew Point 23 °F
Humidity 50%
Rainfall 0.00 in
Snow Depth Not available.
7:03 AM 5:42 PM
Waxing Crescent, 23% visible
SPECI KJEF 122039Z 35013KT 10SM CLR 03/M09 A3037 RMK AO2 WSHFT 2019 T00281089
Pressure 30.37 in
Visibility 10.0 miles
Clouds Clear
Windchill 35 °F
Dew Point 23 °F
Humidity 50%
Rainfall 0.00 in
Snow Depth Not available.
7:03 AM 5:42 PM
Waxing Crescent, 23% visible
SPECI KJEF 122039Z 35013KT 10SM CLR 03/M09 A3037 RMK AO2 WSHFT 2019 T00281089

10-Day Weather Forecast

Almanac

Astronomy

Feb. 12, 2016 Rise Set
Actual Time
Civil Twilight
Nautical Twilight
Astronomical Twilight
Moon
Length of Visible Light
Length of Day
Tomorrow will be .
, % of the Moon is Illuminated

Today's Extremes

State Highs State Lows

Community

WunderPhotos

Upload Photos

1,892,389 photos uploaded!

WunderBlog® & News

Nearby

Air Quality

  Air Quality AQ Index Pollutant
Not available.

Snow Depth

Station Depth Elevation

Earthquake Activity

City Distance Mag. Time & Date
Minimum magnitude displayed is 2.5.

Coastal Water Temperatures

Place Temperature

Stations

Nearby Weather Stations

Station Location Temp. Windchill Dew Point Humidity Wind Precip. Elev Updated Type
                   

Watches & Warnings

There are currently no watches in effect.